sensor_id;sensor_type;location;lat;lon;timestamp;P1;durP1;ratioP1;P2;durP2;ratioP2
49464;SDS011;35358;49.342;8.802;2022-08-19T00:01:38;12.65;;;11.35;;
49464;SDS011;35358;49.342;8.802;2022-08-19T00:04:09;12.57;;;11.38;;
49464;SDS011;35358;49.342;8.802;2022-08-19T00:09:04;13.20;;;11.68;;
49464;SDS011;35358;49.342;8.802;2022-08-19T00:11:31;13.27;;;11.88;;
49464;SDS011;35358;49.342;8.802;2022-08-19T00:14:01;12.85;;;11.55;;
49464;SDS011;35358;49.342;8.802;2022-08-19T00:16:26;13.48;;;12.00;;
49464;SDS011;35358;49.342;8.802;2022-08-19T00:18:54;13.90;;;12.57;;
49464;SDS011;35358;49.342;8.802;2022-08-19T00:21:21;13.18;;;11.80;;
49464;SDS011;35358;49.342;8.802;2022-08-19T00:23:51;14.18;;;12.82;;
49464;SDS011;35358;49.342;8.802;2022-08-19T00:26:23;14.02;;;12.73;;
49464;SDS011;35358;49.342;8.802;2022-08-19T00:28:51;13.80;;;12.02;;
49464;SDS011;35358;49.342;8.802;2022-08-19T00:31:17;13.68;;;12.38;;
49464;SDS011;35358;49.342;8.802;2022-08-19T00:33:45;16.23;;;12.25;;
49464;SDS011;35358;49.342;8.802;2022-08-19T00:36:12;13.82;;;12.48;;
49464;SDS011;35358;49.342;8.802;2022-08-19T00:38:39;15.00;;;13.43;;
49464;SDS011;35358;49.342;8.802;2022-08-19T00:41:12;15.18;;;13.75;;
49464;SDS011;35358;49.342;8.802;2022-08-19T00:43:39;15.30;;;13.77;;
49464;SDS011;35358;49.342;8.802;2022-08-19T00:46:08;14.23;;;12.77;;
49464;SDS011;35358;49.342;8.802;2022-08-19T00:48:34;15.07;;;12.80;;
49464;SDS011;35358;49.342;8.802;2022-08-19T00:51:01;18.80;;;13.20;;
49464;SDS011;35358;49.342;8.802;2022-08-19T00:53:31;15.23;;;13.63;;
49464;SDS011;35358;49.342;8.802;2022-08-19T00:55:59;13.88;;;12.50;;
49464;SDS011;35358;49.342;8.802;2022-08-19T00:58:32;14.75;;;13.35;;
49464;SDS011;35358;49.342;8.802;2022-08-19T01:01:00;15.65;;;14.05;;
49464;SDS011;35358;49.342;8.802;2022-08-19T01:03:27;16.88;;;14.23;;
49464;SDS011;35358;49.342;8.802;2022-08-19T01:05:53;15.85;;;14.00;;
49464;SDS011;35358;49.342;8.802;2022-08-19T01:08:19;15.43;;;13.80;;
49464;SDS011;35358;49.342;8.802;2022-08-19T01:10:47;15.57;;;13.90;;
49464;SDS011;35358;49.342;8.802;2022-08-19T01:13:19;16.45;;;14.75;;
49464;SDS011;35358;49.342;8.802;2022-08-19T01:15:52;15.63;;;13.85;;
49464;SDS011;35358;49.342;8.802;2022-08-19T01:18:23;16.42;;;14.48;;
49464;SDS011;35358;49.342;8.802;2022-08-19T01:20:54;15.90;;;13.68;;
49464;SDS011;35358;49.342;8.802;2022-08-19T01:23:23;16.33;;;14.45;;
49464;SDS011;35358;49.342;8.802;2022-08-19T01:26:07;16.08;;;14.20;;
49464;SDS011;35358;49.342;8.802;2022-08-19T01:28:37;16.20;;;14.50;;
49464;SDS011;35358;49.342;8.802;2022-08-19T01:31:04;15.23;;;13.65;;
49464;SDS011;35358;49.342;8.802;2022-08-19T01:33:30;16.17;;;14.48;;
49464;SDS011;35358;49.342;8.802;2022-08-19T01:36:16;15.65;;;14.10;;
49464;SDS011;35358;49.342;8.802;2022-08-19T01:38:50;15.85;;;14.20;;
49464;SDS011;35358;49.342;8.802;2022-08-19T01:41:17;15.45;;;13.48;;
49464;SDS011;35358;49.342;8.802;2022-08-19T01:43:43;15.30;;;13.73;;
49464;SDS011;35358;49.342;8.802;2022-08-19T01:48:40;19.40;;;16.58;;
49464;SDS011;35358;49.342;8.802;2022-08-19T01:51:09;17.13;;;14.93;;
49464;SDS011;35358;49.342;8.802;2022-08-19T01:53:36;16.33;;;14.65;;
49464;SDS011;35358;49.342;8.802;2022-08-19T01:56:03;17.40;;;15.02;;
49464;SDS011;35358;49.342;8.802;2022-08-19T01:58:31;16.30;;;14.57;;
49464;SDS011;35358;49.342;8.802;2022-08-19T02:01:01;18.02;;;14.85;;
49464;SDS011;35358;49.342;8.802;2022-08-19T02:03:28;16.50;;;14.82;;
49464;SDS011;35358;49.342;8.802;2022-08-19T02:05:58;17.13;;;14.90;;
49464;SDS011;35358;49.342;8.802;2022-08-19T02:08:27;20.75;;;16.80;;
49464;SDS011;35358;49.342;8.802;2022-08-19T02:10:54;17.70;;;15.60;;
49464;SDS011;35358;49.342;8.802;2022-08-19T02:13:23;17.13;;;14.63;;
49464;SDS011;35358;49.342;8.802;2022-08-19T02:15:49;17.13;;;15.32;;
49464;SDS011;35358;49.342;8.802;2022-08-19T02:18:15;16.33;;;14.63;;
49464;SDS011;35358;49.342;8.802;2022-08-19T02:20:46;16.88;;;14.63;;
49464;SDS011;35358;49.342;8.802;2022-08-19T02:23:19;18.35;;;14.98;;
49464;SDS011;35358;49.342;8.802;2022-08-19T02:25:46;16.15;;;14.48;;
49464;SDS011;35358;49.342;8.802;2022-08-19T02:28:16;17.75;;;15.32;;
49464;SDS011;35358;49.342;8.802;2022-08-19T02:30:42;16.75;;;14.35;;
49464;SDS011;35358;49.342;8.802;2022-08-19T02:33:08;19.73;;;16.52;;
49464;SDS011;35358;49.342;8.802;2022-08-19T02:35:35;16.58;;;14.88;;
49464;SDS011;35358;49.342;8.802;2022-08-19T02:38:01;20.73;;;15.65;;
49464;SDS011;35358;49.342;8.802;2022-08-19T02:40:52;17.75;;;15.05;;
49464;SDS011;35358;49.342;8.802;2022-08-19T02:43:22;16.98;;;15.27;;
49464;SDS011;35358;49.342;8.802;2022-08-19T02:45:52;16.63;;;14.90;;
49464;SDS011;35358;49.342;8.802;2022-08-19T02:48:18;18.08;;;14.90;;
49464;SDS011;35358;49.342;8.802;2022-08-19T02:50:46;18.65;;;16.40;;
49464;SDS011;35358;49.342;8.802;2022-08-19T02:53:17;17.75;;;14.48;;
49464;SDS011;35358;49.342;8.802;2022-08-19T02:55:44;18.17;;;15.95;;
49464;SDS011;35358;49.342;8.802;2022-08-19T02:58:13;18.33;;;16.42;;
49464;SDS011;35358;49.342;8.802;2022-08-19T03:00:47;17.52;;;15.68;;
49464;SDS011;35358;49.342;8.802;2022-08-19T03:03:17;17.48;;;15.68;;
49464;SDS011;35358;49.342;8.802;2022-08-19T03:05:46;19.48;;;17.38;;
49464;SDS011;35358;49.342;8.802;2022-08-19T03:08:15;17.30;;;15.25;;
49464;SDS011;35358;49.342;8.802;2022-08-19T03:10:41;17.45;;;15.35;;
49464;SDS011;35358;49.342;8.802;2022-08-19T03:13:09;19.15;;;16.42;;
49464;SDS011;35358;49.342;8.802;2022-08-19T03:15:38;19.98;;;15.77;;
49464;SDS011;35358;49.342;8.802;2022-08-19T03:18:05;19.50;;;16.38;;
49464;SDS011;35358;49.342;8.802;2022-08-19T03:20:33;19.05;;;16.88;;
49464;SDS011;35358;49.342;8.802;2022-08-19T03:22:58;20.17;;;16.58;;
49464;SDS011;35358;49.342;8.802;2022-08-19T03:25:26;18.25;;;16.33;;
49464;SDS011;35358;49.342;8.802;2022-08-19T03:27:52;21.48;;;16.00;;
49464;SDS011;35358;49.342;8.802;2022-08-19T03:30:20;19.38;;;17.35;;
49464;SDS011;35358;49.342;8.802;2022-08-19T03:32:50;19.77;;;15.95;;
49464;SDS011;35358;49.342;8.802;2022-08-19T03:35:16;18.63;;;16.40;;
49464;SDS011;35358;49.342;8.802;2022-08-19T03:37:42;21.05;;;16.13;;
49464;SDS011;35358;49.342;8.802;2022-08-19T03:40:08;20.33;;;16.60;;
49464;SDS011;35358;49.342;8.802;2022-08-19T03:42:36;19.50;;;16.50;;
49464;SDS011;35358;49.342;8.802;2022-08-19T03:45:09;21.77;;;17.25;;
49464;SDS011;35358;49.342;8.802;2022-08-19T03:47:35;17.63;;;14.82;;
49464;SDS011;35358;49.342;8.802;2022-08-19T03:50:03;18.13;;;16.23;;
49464;SDS011;35358;49.342;8.802;2022-08-19T03:52:30;20.15;;;15.70;;
49464;SDS011;35358;49.342;8.802;2022-08-19T03:54:55;18.85;;;16.33;;
49464;SDS011;35358;49.342;8.802;2022-08-19T03:57:21;17.83;;;15.93;;
49464;SDS011;35358;49.342;8.802;2022-08-19T03:59:47;19.27;;;16.48;;
49464;SDS011;35358;49.342;8.802;2022-08-19T04:02:14;19.05;;;15.95;;
49464;SDS011;35358;49.342;8.802;2022-08-19T04:04:40;20.33;;;15.88;;
49464;SDS011;35358;49.342;8.802;2022-08-19T04:07:08;17.88;;;15.98;;
49464;SDS011;35358;49.342;8.802;2022-08-19T04:09:35;18.70;;;16.70;;
49464;SDS011;35358;49.342;8.802;2022-08-19T04:12:01;17.42;;;15.10;;
49464;SDS011;35358;49.342;8.802;2022-08-19T04:14:30;17.90;;;15.45;;
49464;SDS011;35358;49.342;8.802;2022-08-19T04:16:57;16.92;;;14.85;;
49464;SDS011;35358;49.342;8.802;2022-08-19T04:19:29;17.40;;;15.18;;
49464;SDS011;35358;49.342;8.802;2022-08-19T04:21:55;18.30;;;16.40;;
49464;SDS011;35358;49.342;8.802;2022-08-19T04:24:27;18.83;;;16.08;;
49464;SDS011;35358;49.342;8.802;2022-08-19T04:26:52;19.20;;;16.02;;
49464;SDS011;35358;49.342;8.802;2022-08-19T04:29:20;17.73;;;15.77;;
49464;SDS011;35358;49.342;8.802;2022-08-19T04:31:52;17.80;;;15.93;;
49464;SDS011;35358;49.342;8.802;2022-08-19T04:34:22;17.80;;;15.50;;
49464;SDS011;35358;49.342;8.802;2022-08-19T04:36:49;18.80;;;16.13;;
49464;SDS011;35358;49.342;8.802;2022-08-19T04:39:18;18.90;;;15.82;;
49464;SDS011;35358;49.342;8.802;2022-08-19T04:44:31;18.02;;;15.98;;
49464;SDS011;35358;49.342;8.802;2022-08-19T04:47:01;19.55;;;15.73;;
49464;SDS011;35358;49.342;8.802;2022-08-19T04:49:30;17.48;;;15.70;;
49464;SDS011;35358;49.342;8.802;2022-08-19T04:51:55;20.75;;;16.45;;
49464;SDS011;35358;49.342;8.802;2022-08-19T04:54:24;22.70;;;17.88;;
49464;SDS011;35358;49.342;8.802;2022-08-19T04:56:50;20.48;;;16.45;;
49464;SDS011;35358;49.342;8.802;2022-08-19T04:59:17;18.98;;;15.48;;
49464;SDS011;35358;49.342;8.802;2022-08-19T05:01:46;16.83;;;15.00;;
49464;SDS011;35358;49.342;8.802;2022-08-19T05:04:14;17.90;;;15.15;;
49464;SDS011;35358;49.342;8.802;2022-08-19T05:06:46;17.25;;;14.02;;
49464;SDS011;35358;49.342;8.802;2022-08-19T05:09:13;19.35;;;14.98;;
49464;SDS011;35358;49.342;8.802;2022-08-19T05:11:39;17.13;;;14.95;;
49464;SDS011;35358;49.342;8.802;2022-08-19T05:14:05;15.90;;;14.30;;
49464;SDS011;35358;49.342;8.802;2022-08-19T05:16:32;17.25;;;14.60;;
49464;SDS011;35358;49.342;8.802;2022-08-19T05:19:00;17.10;;;14.55;;
49464;SDS011;35358;49.342;8.802;2022-08-19T05:21:45;17.88;;;15.05;;
49464;SDS011;35358;49.342;8.802;2022-08-19T05:24:30;17.67;;;15.50;;
49464;SDS011;35358;49.342;8.802;2022-08-19T05:26:59;18.85;;;14.82;;
49464;SDS011;35358;49.342;8.802;2022-08-19T05:29:30;20.58;;;16.00;;
49464;SDS011;35358;49.342;8.802;2022-08-19T05:31:59;16.80;;;14.05;;
49464;SDS011;35358;49.342;8.802;2022-08-19T05:34:25;17.38;;;15.38;;
49464;SDS011;35358;49.342;8.802;2022-08-19T05:36:55;17.45;;;15.10;;
49464;SDS011;35358;49.342;8.802;2022-08-19T05:39:30;20.35;;;16.10;;
49464;SDS011;35358;49.342;8.802;2022-08-19T05:41:58;18.50;;;15.50;;
49464;SDS011;35358;49.342;8.802;2022-08-19T05:44:29;18.42;;;15.15;;
49464;SDS011;35358;49.342;8.802;2022-08-19T05:46:57;17.08;;;14.38;;
49464;SDS011;35358;49.342;8.802;2022-08-19T05:49:24;18.17;;;14.88;;
49464;SDS011;35358;49.342;8.802;2022-08-19T05:51:53;20.00;;;14.68;;
49464;SDS011;35358;49.342;8.802;2022-08-19T05:54:20;17.70;;;15.70;;
49464;SDS011;35358;49.342;8.802;2022-08-19T05:56:48;19.27;;;14.73;;
49464;SDS011;35358;49.342;8.802;2022-08-19T05:59:18;16.83;;;14.50;;
49464;SDS011;35358;49.342;8.802;2022-08-19T06:01:46;17.33;;;14.25;;
49464;SDS011;35358;49.342;8.802;2022-08-19T06:04:19;18.50;;;16.02;;
49464;SDS011;35358;49.342;8.802;2022-08-19T06:06:51;17.95;;;14.70;;
49464;SDS011;35358;49.342;8.802;2022-08-19T06:09:18;24.40;;;14.65;;
49464;SDS011;35358;49.342;8.802;2022-08-19T06:11:48;18.60;;;13.88;;
49464;SDS011;35358;49.342;8.802;2022-08-19T06:14:25;19.60;;;16.13;;
49464;SDS011;35358;49.342;8.802;2022-08-19T06:16:54;16.85;;;14.18;;
49464;SDS011;35358;49.342;8.802;2022-08-19T06:19:25;19.65;;;13.50;;
49464;SDS011;35358;49.342;8.802;2022-08-19T06:21:53;18.48;;;14.68;;
49464;SDS011;35358;49.342;8.802;2022-08-19T06:24:20;20.80;;;15.60;;
49464;SDS011;35358;49.342;8.802;2022-08-19T06:26:52;18.30;;;14.32;;
49464;SDS011;35358;49.342;8.802;2022-08-19T06:29:20;16.98;;;14.07;;
49464;SDS011;35358;49.342;8.802;2022-08-19T06:31:49;17.13;;;14.20;;
49464;SDS011;35358;49.342;8.802;2022-08-19T06:34:17;16.55;;;14.80;;
49464;SDS011;35358;49.342;8.802;2022-08-19T06:36:47;17.90;;;13.85;;
49464;SDS011;35358;49.342;8.802;2022-08-19T06:39:15;19.48;;;14.98;;
49464;SDS011;35358;49.342;8.802;2022-08-19T06:41:44;23.50;;;14.98;;
49464;SDS011;35358;49.342;8.802;2022-08-19T06:44:12;19.25;;;15.35;;
49464;SDS011;35358;49.342;8.802;2022-08-19T06:46:38;17.20;;;14.20;;
49464;SDS011;35358;49.342;8.802;2022-08-19T06:49:09;16.98;;;14.30;;
49464;SDS011;35358;49.342;8.802;2022-08-19T06:51:39;21.60;;;15.07;;
49464;SDS011;35358;49.342;8.802;2022-08-19T06:54:05;19.92;;;14.98;;
49464;SDS011;35358;49.342;8.802;2022-08-19T06:56:36;17.45;;;15.02;;
49464;SDS011;35358;49.342;8.802;2022-08-19T06:59:12;21.17;;;15.32;;
49464;SDS011;35358;49.342;8.802;2022-08-19T07:01:40;18.05;;;13.93;;
49464;SDS011;35358;49.342;8.802;2022-08-19T07:04:10;17.52;;;14.55;;
49464;SDS011;35358;49.342;8.802;2022-08-19T07:06:36;16.60;;;14.65;;
49464;SDS011;35358;49.342;8.802;2022-08-19T07:09:03;15.02;;;13.18;;
49464;SDS011;35358;49.342;8.802;2022-08-19T07:11:32;15.43;;;12.18;;
49464;SDS011;35358;49.342;8.802;2022-08-19T07:13:59;15.63;;;12.80;;
49464;SDS011;35358;49.342;8.802;2022-08-19T07:16:28;16.90;;;12.05;;
49464;SDS011;35358;49.342;8.802;2022-08-19T07:18:55;13.60;;;11.80;;
49464;SDS011;35358;49.342;8.802;2022-08-19T07:21:26;15.88;;;11.98;;
49464;SDS011;35358;49.342;8.802;2022-08-19T07:23:53;13.52;;;11.00;;
49464;SDS011;35358;49.342;8.802;2022-08-19T07:26:26;13.32;;;11.48;;
49464;SDS011;35358;49.342;8.802;2022-08-19T07:28:57;15.23;;;12.30;;
49464;SDS011;35358;49.342;8.802;2022-08-19T07:31:25;14.77;;;12.07;;
49464;SDS011;35358;49.342;8.802;2022-08-19T07:33:52;16.98;;;11.77;;
49464;SDS011;35358;49.342;8.802;2022-08-19T07:36:22;12.68;;;11.15;;
49464;SDS011;35358;49.342;8.802;2022-08-19T07:39:00;14.45;;;11.73;;
49464;SDS011;35358;49.342;8.802;2022-08-19T07:41:31;16.40;;;11.80;;
49464;SDS011;35358;49.342;8.802;2022-08-19T07:44:03;12.93;;;11.63;;
49464;SDS011;35358;49.342;8.802;2022-08-19T07:46:30;14.65;;;11.90;;
49464;SDS011;35358;49.342;8.802;2022-08-19T07:49:00;14.60;;;11.95;;
49464;SDS011;35358;49.342;8.802;2022-08-19T07:51:30;12.77;;;11.50;;
49464;SDS011;35358;49.342;8.802;2022-08-19T07:53:56;14.82;;;12.15;;
49464;SDS011;35358;49.342;8.802;2022-08-19T07:56:22;15.15;;;11.35;;
49464;SDS011;35358;49.342;8.802;2022-08-19T07:58:48;16.08;;;11.85;;
49464;SDS011;35358;49.342;8.802;2022-08-19T08:01:23;14.25;;;11.98;;
49464;SDS011;35358;49.342;8.802;2022-08-19T08:03:52;13.77;;;11.35;;
49464;SDS011;35358;49.342;8.802;2022-08-19T08:06:40;15.02;;;11.88;;
49464;SDS011;35358;49.342;8.802;2022-08-19T08:09:31;16.23;;;12.65;;
49464;SDS011;35358;49.342;8.802;2022-08-19T08:12:06;14.85;;;11.60;;
49464;SDS011;35358;49.342;8.802;2022-08-19T08:14:43;16.45;;;11.20;;
49464;SDS011;35358;49.342;8.802;2022-08-19T08:17:13;12.65;;;10.45;;
49464;SDS011;35358;49.342;8.802;2022-08-19T08:19:43;13.25;;;11.65;;
49464;SDS011;35358;49.342;8.802;2022-08-19T08:22:10;14.32;;;10.85;;
49464;SDS011;35358;49.342;8.802;2022-08-19T08:24:56;12.57;;;11.30;;
49464;SDS011;35358;49.342;8.802;2022-08-19T08:27:24;16.35;;;11.32;;
49464;SDS011;35358;49.342;8.802;2022-08-19T08:29:56;13.93;;;10.98;;
49464;SDS011;35358;49.342;8.802;2022-08-19T08:32:25;14.48;;;11.65;;
49464;SDS011;35358;49.342;8.802;2022-08-19T08:34:51;14.90;;;11.45;;
49464;SDS011;35358;49.342;8.802;2022-08-19T08:37:17;13.23;;;9.90;;
49464;SDS011;35358;49.342;8.802;2022-08-19T08:39:49;12.07;;;10.15;;
49464;SDS011;35358;49.342;8.802;2022-08-19T08:42:22;15.90;;;10.20;;
49464;SDS011;35358;49.342;8.802;2022-08-19T08:45:03;13.77;;;9.32;;
49464;SDS011;35358;49.342;8.802;2022-08-19T08:47:37;10.85;;;9.75;;
49464;SDS011;35358;49.342;8.802;2022-08-19T08:50:10;10.48;;;9.38;;
49464;SDS011;35358;49.342;8.802;2022-08-19T08:52:44;11.95;;;9.88;;
49464;SDS011;35358;49.342;8.802;2022-08-19T08:55:14;14.20;;;10.32;;
49464;SDS011;35358;49.342;8.802;2022-08-19T09:00:21;10.90;;;9.23;;
49464;SDS011;35358;49.342;8.802;2022-08-19T09:03:03;9.93;;;8.88;;
49464;SDS011;35358;49.342;8.802;2022-08-19T09:11:08;12.40;;;9.50;;
49464;SDS011;35358;49.342;8.802;2022-08-19T09:16:44;11.32;;;8.07;;
49464;SDS011;35358;49.342;8.802;2022-08-19T09:19:10;8.52;;;7.40;;
49464;SDS011;35358;49.342;8.802;2022-08-19T09:21:37;9.73;;;8.02;;
49464;SDS011;35358;49.342;8.802;2022-08-19T09:24:03;9.65;;;7.45;;
49464;SDS011;35358;49.342;8.802;2022-08-19T09:26:32;11.63;;;9.25;;
49464;SDS011;35358;49.342;8.802;2022-08-19T09:28:58;9.15;;;7.93;;
49464;SDS011;35358;49.342;8.802;2022-08-19T09:31:28;11.15;;;8.90;;
49464;SDS011;35358;49.342;8.802;2022-08-19T09:33:57;11.50;;;8.68;;
49464;SDS011;35358;49.342;8.802;2022-08-19T09:36:25;15.02;;;9.05;;
49464;SDS011;35358;49.342;8.802;2022-08-19T09:38:57;14.27;;;6.72;;
49464;SDS011;35358;49.342;8.802;2022-08-19T09:41:26;7.97;;;7.03;;
49464;SDS011;35358;49.342;8.802;2022-08-19T09:43:54;9.25;;;6.82;;
49464;SDS011;35358;49.342;8.802;2022-08-19T09:46:22;8.57;;;7.15;;
49464;SDS011;35358;49.342;8.802;2022-08-19T09:48:50;8.07;;;6.43;;
49464;SDS011;35358;49.342;8.802;2022-08-19T09:51:17;8.77;;;5.68;;
49464;SDS011;35358;49.342;8.802;2022-08-19T09:53:46;12.68;;;6.57;;
49464;SDS011;35358;49.342;8.802;2022-08-19T09:56:15;7.07;;;6.40;;
49464;SDS011;35358;49.342;8.802;2022-08-19T09:58:41;9.43;;;6.22;;
49464;SDS011;35358;49.342;8.802;2022-08-19T10:01:07;6.47;;;5.85;;
49464;SDS011;35358;49.342;8.802;2022-08-19T10:03:36;8.00;;;6.03;;
49464;SDS011;35358;49.342;8.802;2022-08-19T10:06:02;8.27;;;5.68;;
49464;SDS011;35358;49.342;8.802;2022-08-19T10:08:36;6.78;;;5.75;;
49464;SDS011;35358;49.342;8.802;2022-08-19T10:11:03;6.23;;;5.40;;
49464;SDS011;35358;49.342;8.802;2022-08-19T10:13:31;6.25;;;5.65;;
49464;SDS011;35358;49.342;8.802;2022-08-19T10:18:39;8.32;;;5.72;;
49464;SDS011;35358;49.342;8.802;2022-08-19T10:21:11;6.15;;;5.55;;
49464;SDS011;35358;49.342;8.802;2022-08-19T10:23:44;8.93;;;6.22;;
49464;SDS011;35358;49.342;8.802;2022-08-19T10:26:15;7.50;;;6.20;;
49464;SDS011;35358;49.342;8.802;2022-08-19T10:28:46;8.48;;;5.57;;
49464;SDS011;35358;49.342;8.802;2022-08-19T10:31:13;8.60;;;6.57;;
49464;SDS011;35358;49.342;8.802;2022-08-19T10:33:48;8.07;;;5.47;;
49464;SDS011;35358;49.342;8.802;2022-08-19T10:36:16;9.52;;;5.72;;
49464;SDS011;35358;49.342;8.802;2022-08-19T10:38:44;6.97;;;5.68;;
49464;SDS011;35358;49.342;8.802;2022-08-19T10:41:13;8.13;;;5.18;;
49464;SDS011;35358;49.342;8.802;2022-08-19T10:43:43;5.13;;;4.32;;
49464;SDS011;35358;49.342;8.802;2022-08-19T10:46:11;5.10;;;3.80;;
49464;SDS011;35358;49.342;8.802;2022-08-19T10:48:38;4.80;;;3.78;;
49464;SDS011;35358;49.342;8.802;2022-08-19T10:51:04;4.63;;;4.05;;
49464;SDS011;35358;49.342;8.802;2022-08-19T10:53:49;5.18;;;4.38;;
49464;SDS011;35358;49.342;8.802;2022-08-19T10:56:17;4.45;;;3.80;;
49464;SDS011;35358;49.342;8.802;2022-08-19T10:59:02;9.45;;;4.28;;
49464;SDS011;35358;49.342;8.802;2022-08-19T11:01:31;5.10;;;4.40;;
49464;SDS011;35358;49.342;8.802;2022-08-19T11:04:01;4.78;;;4.28;;
49464;SDS011;35358;49.342;8.802;2022-08-19T11:06:29;4.65;;;3.95;;
49464;SDS011;35358;49.342;8.802;2022-08-19T11:08:56;5.97;;;4.20;;
49464;SDS011;35358;49.342;8.802;2022-08-19T11:11:25;5.53;;;3.75;;
49464;SDS011;35358;49.342;8.802;2022-08-19T11:13:54;6.78;;;4.25;;
49464;SDS011;35358;49.342;8.802;2022-08-19T11:16:20;8.45;;;4.15;;
49464;SDS011;35358;49.342;8.802;2022-08-19T11:18:49;4.00;;;3.55;;
49464;SDS011;35358;49.342;8.802;2022-08-19T11:23:49;4.22;;;3.70;;
49464;SDS011;35358;49.342;8.802;2022-08-19T11:26:17;4.10;;;3.53;;
49464;SDS011;35358;49.342;8.802;2022-08-19T11:28:46;5.47;;;3.78;;
49464;SDS011;35358;49.342;8.802;2022-08-19T11:31:16;5.72;;;3.58;;
49464;SDS011;35358;49.342;8.802;2022-08-19T11:33:46;5.75;;;4.10;;
49464;SDS011;35358;49.342;8.802;2022-08-19T11:36:15;7.82;;;4.00;;
49464;SDS011;35358;49.342;8.802;2022-08-19T11:38:44;4.38;;;3.88;;
49464;SDS011;35358;49.342;8.802;2022-08-19T11:41:16;4.50;;;4.05;;
49464;SDS011;35358;49.342;8.802;2022-08-19T11:43:45;5.53;;;4.28;;
49464;SDS011;35358;49.342;8.802;2022-08-19T11:46:11;6.93;;;4.60;;
49464;SDS011;35358;49.342;8.802;2022-08-19T11:48:39;5.05;;;4.55;;
49464;SDS011;35358;49.342;8.802;2022-08-19T11:51:08;6.45;;;4.68;;
49464;SDS011;35358;49.342;8.802;2022-08-19T11:53:38;5.22;;;3.97;;
49464;SDS011;35358;49.342;8.802;2022-08-19T11:56:08;5.47;;;4.97;;
49464;SDS011;35358;49.342;8.802;2022-08-19T12:01:06;6.88;;;5.05;;
49464;SDS011;35358;49.342;8.802;2022-08-19T12:03:33;5.20;;;4.25;;
49464;SDS011;35358;49.342;8.802;2022-08-19T12:06:02;7.35;;;3.97;;
49464;SDS011;35358;49.342;8.802;2022-08-19T12:08:32;4.50;;;4.10;;
49464;SDS011;35358;49.342;8.802;2022-08-19T12:10:57;5.18;;;4.68;;
49464;SDS011;35358;49.342;8.802;2022-08-19T12:13:25;5.55;;;4.63;;
49464;SDS011;35358;49.342;8.802;2022-08-19T12:15:52;5.53;;;5.03;;
49464;SDS011;35358;49.342;8.802;2022-08-19T12:18:20;5.35;;;4.85;;
49464;SDS011;35358;49.342;8.802;2022-08-19T12:20:45;6.00;;;4.65;;
49464;SDS011;35358;49.342;8.802;2022-08-19T12:23:12;5.40;;;5.00;;
49464;SDS011;35358;49.342;8.802;2022-08-19T12:25:47;6.43;;;5.82;;
49464;SDS011;35358;49.342;8.802;2022-08-19T12:28:18;7.00;;;4.60;;
49464;SDS011;35358;49.342;8.802;2022-08-19T12:30:46;7.67;;;4.63;;
49464;SDS011;35358;49.342;8.802;2022-08-19T12:33:13;5.85;;;5.18;;
49464;SDS011;35358;49.342;8.802;2022-08-19T12:35:44;5.18;;;4.70;;
49464;SDS011;35358;49.342;8.802;2022-08-19T12:38:13;5.00;;;4.50;;
49464;SDS011;35358;49.342;8.802;2022-08-19T12:40:44;6.75;;;4.70;;
49464;SDS011;35358;49.342;8.802;2022-08-19T12:43:14;8.90;;;4.78;;
49464;SDS011;35358;49.342;8.802;2022-08-19T12:45:41;5.03;;;4.57;;
49464;SDS011;35358;49.342;8.802;2022-08-19T12:48:07;6.70;;;4.95;;
49464;SDS011;35358;49.342;8.802;2022-08-19T12:50:33;6.00;;;5.40;;
49464;SDS011;35358;49.342;8.802;2022-08-19T12:53:02;4.97;;;4.43;;
49464;SDS011;35358;49.342;8.802;2022-08-19T12:55:28;6.60;;;4.60;;
49464;SDS011;35358;49.342;8.802;2022-08-19T12:57:54;6.75;;;4.65;;
49464;SDS011;35358;49.342;8.802;2022-08-19T13:00:20;5.95;;;5.28;;
49464;SDS011;35358;49.342;8.802;2022-08-19T13:02:48;5.40;;;4.90;;
49464;SDS011;35358;49.342;8.802;2022-08-19T13:05:22;6.82;;;5.63;;
49464;SDS011;35358;49.342;8.802;2022-08-19T13:07:50;8.10;;;5.95;;
49464;SDS011;35358;49.342;8.802;2022-08-19T13:10:18;6.82;;;6.10;;
49464;SDS011;35358;49.342;8.802;2022-08-19T13:12:46;6.95;;;6.07;;
49464;SDS011;35358;49.342;8.802;2022-08-19T13:15:16;6.35;;;5.72;;
49464;SDS011;35358;49.342;8.802;2022-08-19T13:17:50;6.07;;;5.50;;
49464;SDS011;35358;49.342;8.802;2022-08-19T13:20:18;6.18;;;5.68;;
49464;SDS011;35358;49.342;8.802;2022-08-19T13:22:47;6.20;;;5.18;;
49464;SDS011;35358;49.342;8.802;2022-08-19T13:25:16;5.47;;;5.07;;
49464;SDS011;35358;49.342;8.802;2022-08-19T13:27:44;6.38;;;5.85;;
49464;SDS011;35358;49.342;8.802;2022-08-19T13:30:13;5.90;;;5.40;;
49464;SDS011;35358;49.342;8.802;2022-08-19T13:32:59;6.00;;;5.38;;
49464;SDS011;35358;49.342;8.802;2022-08-19T13:35:48;6.88;;;5.53;;
49464;SDS011;35358;49.342;8.802;2022-08-19T13:38:20;6.65;;;5.38;;
49464;SDS011;35358;49.342;8.802;2022-08-19T13:40:49;7.38;;;5.57;;
49464;SDS011;35358;49.342;8.802;2022-08-19T13:43:18;9.18;;;5.05;;
49464;SDS011;35358;49.342;8.802;2022-08-19T13:45:46;6.53;;;4.70;;
49464;SDS011;35358;49.342;8.802;2022-08-19T13:48:13;4.90;;;4.50;;
49464;SDS011;35358;49.342;8.802;2022-08-19T13:50:40;6.47;;;4.70;;
49464;SDS011;35358;49.342;8.802;2022-08-19T13:53:11;5.32;;;4.78;;
49464;SDS011;35358;49.342;8.802;2022-08-19T13:55:39;5.43;;;4.93;;
49464;SDS011;35358;49.342;8.802;2022-08-19T13:58:08;4.30;;;3.90;;
49464;SDS011;35358;49.342;8.802;2022-08-19T14:00:37;4.93;;;4.05;;
49464;SDS011;35358;49.342;8.802;2022-08-19T14:03:06;6.13;;;4.43;;
49464;SDS011;35358;49.342;8.802;2022-08-19T14:05:32;5.00;;;4.30;;
49464;SDS011;35358;49.342;8.802;2022-08-19T14:07:59;5.50;;;4.60;;
49464;SDS011;35358;49.342;8.802;2022-08-19T14:10:30;4.47;;;4.18;;
49464;SDS011;35358;49.342;8.802;2022-08-19T14:12:58;4.97;;;4.47;;
49464;SDS011;35358;49.342;8.802;2022-08-19T14:15:25;4.60;;;4.20;;
49464;SDS011;35358;49.342;8.802;2022-08-19T14:17:54;4.40;;;4.00;;
49464;SDS011;35358;49.342;8.802;2022-08-19T14:20:23;4.18;;;3.80;;
49464;SDS011;35358;49.342;8.802;2022-08-19T14:22:49;6.75;;;4.07;;
49464;SDS011;35358;49.342;8.802;2022-08-19T14:25:16;7.28;;;4.50;;
49464;SDS011;35358;49.342;8.802;2022-08-19T14:27:46;4.90;;;4.40;;
49464;SDS011;35358;49.342;8.802;2022-08-19T14:30:13;4.18;;;3.78;;
49464;SDS011;35358;49.342;8.802;2022-08-19T14:32:41;4.37;;;3.90;;
49464;SDS011;35358;49.342;8.802;2022-08-19T14:35:08;4.15;;;3.75;;
49464;SDS011;35358;49.342;8.802;2022-08-19T14:37:37;7.63;;;3.90;;
49464;SDS011;35358;49.342;8.802;2022-08-19T14:40:06;4.53;;;4.13;;
49464;SDS011;35358;49.342;8.802;2022-08-19T14:42:33;4.25;;;3.75;;
49464;SDS011;35358;49.342;8.802;2022-08-19T14:44:59;4.55;;;4.15;;
49464;SDS011;35358;49.342;8.802;2022-08-19T14:47:25;4.63;;;4.22;;
49464;SDS011;35358;49.342;8.802;2022-08-19T14:49:52;5.28;;;4.05;;
49464;SDS011;35358;49.342;8.802;2022-08-19T14:52:21;5.60;;;4.55;;
49464;SDS011;35358;49.342;8.802;2022-08-19T14:54:47;4.90;;;4.50;;
49464;SDS011;35358;49.342;8.802;2022-08-19T14:57:16;7.07;;;4.55;;
49464;SDS011;35358;49.342;8.802;2022-08-19T14:59:42;4.28;;;3.88;;
49464;SDS011;35358;49.342;8.802;2022-08-19T15:02:11;5.18;;;4.57;;
49464;SDS011;35358;49.342;8.802;2022-08-19T15:04:37;5.07;;;4.55;;
49464;SDS011;35358;49.342;8.802;2022-08-19T15:07:04;4.90;;;4.30;;
49464;SDS011;35358;49.342;8.802;2022-08-19T15:09:32;6.13;;;4.07;;